sensor_id;sensor_type;location;lat;lon;timestamp;P1;durP1;ratioP1;P2;durP2;ratioP2
23472;SDS011;11909;52.516;13.564;2024-02-28T00:02:12;25.55;;;12.85;;
23472;SDS011;11909;52.516;13.564;2024-02-28T00:04:40;23.88;;;13.90;;
23472;SDS011;11909;52.516;13.564;2024-02-28T00:07:09;25.75;;;14.00;;
23472;SDS011;11909;52.516;13.564;2024-02-28T00:09:37;28.92;;;13.57;;
23472;SDS011;11909;52.516;13.564;2024-02-28T00:12:05;25.58;;;12.95;;
23472;SDS011;11909;52.516;13.564;2024-02-28T00:14:34;25.73;;;13.18;;
23472;SDS011;11909;52.516;13.564;2024-02-28T00:17:01;25.10;;;13.95;;
23472;SDS011;11909;52.516;13.564;2024-02-28T00:19:29;26.10;;;14.23;;
23472;SDS011;11909;52.516;13.564;2024-02-28T00:21:58;20.95;;;13.57;;
23472;SDS011;11909;52.516;13.564;2024-02-28T00:24:29;24.67;;;13.85;;
23472;SDS011;11909;52.516;13.564;2024-02-28T00:26:57;24.73;;;13.68;;
23472;SDS011;11909;52.516;13.564;2024-02-28T00:29:25;29.10;;;14.95;;
23472;SDS011;11909;52.516;13.564;2024-02-28T00:31:53;24.17;;;14.55;;
23472;SDS011;11909;52.516;13.564;2024-02-28T00:34:21;26.58;;;15.27;;
23472;SDS011;11909;52.516;13.564;2024-02-28T00:36:49;27.38;;;14.27;;
23472;SDS011;11909;52.516;13.564;2024-02-28T00:39:22;22.80;;;13.85;;
23472;SDS011;11909;52.516;13.564;2024-02-28T00:41:51;25.20;;;13.93;;
23472;SDS011;11909;52.516;13.564;2024-02-28T00:44:19;27.73;;;14.95;;
23472;SDS011;11909;52.516;13.564;2024-02-28T00:46:47;24.20;;;14.45;;
23472;SDS011;11909;52.516;13.564;2024-02-28T00:49:15;29.92;;;15.18;;
23472;SDS011;11909;52.516;13.564;2024-02-28T00:51:43;26.42;;;14.75;;
23472;SDS011;11909;52.516;13.564;2024-02-28T00:54:11;22.52;;;13.35;;
23472;SDS011;11909;52.516;13.564;2024-02-28T00:56:39;24.75;;;13.55;;
23472;SDS011;11909;52.516;13.564;2024-02-28T00:59:09;22.73;;;13.63;;
23472;SDS011;11909;52.516;13.564;2024-02-28T01:01:39;21.50;;;13.13;;
23472;SDS011;11909;52.516;13.564;2024-02-28T01:04:08;23.65;;;13.00;;
23472;SDS011;11909;52.516;13.564;2024-02-28T01:06:36;21.58;;;12.57;;
23472;SDS011;11909;52.516;13.564;2024-02-28T01:09:05;20.58;;;11.65;;
23472;SDS011;11909;52.516;13.564;2024-02-28T01:11:33;21.13;;;12.18;;
23472;SDS011;11909;52.516;13.564;2024-02-28T01:14:01;20.75;;;11.63;;
23472;SDS011;11909;52.516;13.564;2024-02-28T01:16:31;20.55;;;11.82;;
23472;SDS011;11909;52.516;13.564;2024-02-28T01:18:58;19.55;;;11.80;;
23472;SDS011;11909;52.516;13.564;2024-02-28T01:21:26;20.58;;;11.50;;
23472;SDS011;11909;52.516;13.564;2024-02-28T01:23:54;21.10;;;11.40;;
23472;SDS011;11909;52.516;13.564;2024-02-28T01:26:22;22.02;;;12.02;;
23472;SDS011;11909;52.516;13.564;2024-02-28T01:28:50;18.13;;;9.95;;
23472;SDS011;11909;52.516;13.564;2024-02-28T01:31:18;20.00;;;11.00;;
23472;SDS011;11909;52.516;13.564;2024-02-28T01:33:48;17.20;;;10.35;;
23472;SDS011;11909;52.516;13.564;2024-02-28T01:36:15;20.50;;;10.82;;
23472;SDS011;11909;52.516;13.564;2024-02-28T01:38:44;17.48;;;10.45;;
23472;SDS011;11909;52.516;13.564;2024-02-28T01:41:12;22.75;;;12.75;;
23472;SDS011;11909;52.516;13.564;2024-02-28T01:43:40;21.17;;;11.55;;
23472;SDS011;11909;52.516;13.564;2024-02-28T01:46:11;19.02;;;11.13;;
23472;SDS011;11909;52.516;13.564;2024-02-28T01:48:49;22.17;;;11.38;;
23472;SDS011;11909;52.516;13.564;2024-02-28T01:51:17;20.90;;;11.35;;
23472;SDS011;11909;52.516;13.564;2024-02-28T01:53:47;19.27;;;11.25;;
23472;SDS011;11909;52.516;13.564;2024-02-28T01:56:17;25.83;;;11.70;;
23472;SDS011;11909;52.516;13.564;2024-02-28T01:58:47;21.17;;;11.43;;
23472;SDS011;11909;52.516;13.564;2024-02-28T02:01:16;25.40;;;13.00;;
23472;SDS011;11909;52.516;13.564;2024-02-28T02:03:44;19.17;;;11.55;;
23472;SDS011;11909;52.516;13.564;2024-02-28T02:06:14;20.48;;;12.07;;
23472;SDS011;11909;52.516;13.564;2024-02-28T02:08:42;19.00;;;11.55;;
23472;SDS011;11909;52.516;13.564;2024-02-28T02:11:10;20.58;;;11.30;;
23472;SDS011;11909;52.516;13.564;2024-02-28T02:13:47;23.27;;;11.98;;
23472;SDS011;11909;52.516;13.564;2024-02-28T02:16:16;20.90;;;11.93;;
23472;SDS011;11909;52.516;13.564;2024-02-28T02:18:43;18.33;;;11.48;;
23472;SDS011;11909;52.516;13.564;2024-02-28T02:21:11;19.58;;;11.35;;
23472;SDS011;11909;52.516;13.564;2024-02-28T02:23:44;20.67;;;11.88;;
23472;SDS011;11909;52.516;13.564;2024-02-28T02:26:12;21.58;;;12.48;;
23472;SDS011;11909;52.516;13.564;2024-02-28T02:28:40;20.80;;;11.32;;
23472;SDS011;11909;52.516;13.564;2024-02-28T02:31:10;20.25;;;11.13;;
23472;SDS011;11909;52.516;13.564;2024-02-28T02:33:38;19.80;;;11.63;;
23472;SDS011;11909;52.516;13.564;2024-02-28T02:36:06;18.95;;;11.23;;
23472;SDS011;11909;52.516;13.564;2024-02-28T02:38:34;21.55;;;12.07;;
23472;SDS011;11909;52.516;13.564;2024-02-28T02:41:03;18.48;;;12.05;;
23472;SDS011;11909;52.516;13.564;2024-02-28T02:43:31;17.55;;;10.35;;
23472;SDS011;11909;52.516;13.564;2024-02-28T02:45:59;18.55;;;11.10;;
23472;SDS011;11909;52.516;13.564;2024-02-28T02:48:27;21.95;;;12.07;;
23472;SDS011;11909;52.516;13.564;2024-02-28T02:50:55;21.27;;;11.65;;
23472;SDS011;11909;52.516;13.564;2024-02-28T02:53:23;21.67;;;12.18;;
23472;SDS011;11909;52.516;13.564;2024-02-28T02:55:51;20.00;;;10.95;;
23472;SDS011;11909;52.516;13.564;2024-02-28T02:58:22;21.35;;;12.15;;
23472;SDS011;11909;52.516;13.564;2024-02-28T03:00:49;22.27;;;11.27;;
23472;SDS011;11909;52.516;13.564;2024-02-28T03:03:18;19.85;;;12.40;;
23472;SDS011;11909;52.516;13.564;2024-02-28T03:05:46;21.80;;;11.88;;
23472;SDS011;11909;52.516;13.564;2024-02-28T03:08:14;21.58;;;11.32;;
23472;SDS011;11909;52.516;13.564;2024-02-28T03:10:42;21.98;;;11.32;;
23472;SDS011;11909;52.516;13.564;2024-02-28T03:13:10;20.00;;;11.43;;
23472;SDS011;11909;52.516;13.564;2024-02-28T03:15:39;17.23;;;10.52;;
23472;SDS011;11909;52.516;13.564;2024-02-28T03:18:08;17.85;;;11.20;;
23472;SDS011;11909;52.516;13.564;2024-02-28T03:20:36;17.27;;;10.35;;
23472;SDS011;11909;52.516;13.564;2024-02-28T03:23:04;17.20;;;10.75;;
23472;SDS011;11909;52.516;13.564;2024-02-28T03:25:33;17.70;;;10.57;;
23472;SDS011;11909;52.516;13.564;2024-02-28T03:28:01;18.38;;;9.35;;
23472;SDS011;11909;52.516;13.564;2024-02-28T03:30:29;15.93;;;9.75;;
23472;SDS011;11909;52.516;13.564;2024-02-28T03:32:59;14.10;;;8.57;;
23472;SDS011;11909;52.516;13.564;2024-02-28T03:35:27;15.32;;;8.40;;
23472;SDS011;11909;52.516;13.564;2024-02-28T03:37:56;15.90;;;8.73;;
23472;SDS011;11909;52.516;13.564;2024-02-28T03:40:25;15.77;;;9.38;;
23472;SDS011;11909;52.516;13.564;2024-02-28T03:42:53;13.18;;;8.45;;
23472;SDS011;11909;52.516;13.564;2024-02-28T03:45:22;15.32;;;8.57;;
23472;SDS011;11909;52.516;13.564;2024-02-28T03:47:50;11.80;;;8.02;;
23472;SDS011;11909;52.516;13.564;2024-02-28T03:50:20;13.40;;;8.43;;
23472;SDS011;11909;52.516;13.564;2024-02-28T03:52:48;12.38;;;7.65;;
23472;SDS011;11909;52.516;13.564;2024-02-28T03:55:16;13.80;;;8.05;;
23472;SDS011;11909;52.516;13.564;2024-02-28T03:57:46;10.15;;;6.72;;
23472;SDS011;11909;52.516;13.564;2024-02-28T04:02:42;12.43;;;7.53;;
23472;SDS011;11909;52.516;13.564;2024-02-28T04:05:10;11.05;;;7.13;;
23472;SDS011;11909;52.516;13.564;2024-02-28T04:07:40;12.18;;;7.07;;
23472;SDS011;11909;52.516;13.564;2024-02-28T04:10:08;13.40;;;7.97;;
23472;SDS011;11909;52.516;13.564;2024-02-28T04:12:37;12.13;;;7.15;;
23472;SDS011;11909;52.516;13.564;2024-02-28T04:15:05;10.75;;;7.47;;
23472;SDS011;11909;52.516;13.564;2024-02-28T04:17:36;12.40;;;7.20;;
23472;SDS011;11909;52.516;13.564;2024-02-28T04:20:07;12.35;;;7.38;;
23472;SDS011;11909;52.516;13.564;2024-02-28T04:22:36;9.63;;;6.47;;
23472;SDS011;11909;52.516;13.564;2024-02-28T04:25:07;11.95;;;7.07;;
23472;SDS011;11909;52.516;13.564;2024-02-28T04:27:35;10.10;;;6.47;;
23472;SDS011;11909;52.516;13.564;2024-02-28T04:30:06;12.00;;;6.47;;
23472;SDS011;11909;52.516;13.564;2024-02-28T04:32:34;11.40;;;7.00;;
23472;SDS011;11909;52.516;13.564;2024-02-28T04:35:02;16.05;;;6.60;;
23472;SDS011;11909;52.516;13.564;2024-02-28T04:37:31;11.13;;;6.63;;
23472;SDS011;11909;52.516;13.564;2024-02-28T04:39:58;11.60;;;6.47;;
23472;SDS011;11909;52.516;13.564;2024-02-28T04:42:28;11.57;;;6.45;;
23472;SDS011;11909;52.516;13.564;2024-02-28T04:44:56;11.75;;;6.22;;
23472;SDS011;11909;52.516;13.564;2024-02-28T04:47:24;12.95;;;6.35;;
23472;SDS011;11909;52.516;13.564;2024-02-28T04:50:05;10.77;;;6.22;;
23472;SDS011;11909;52.516;13.564;2024-02-28T04:52:33;13.70;;;6.78;;
23472;SDS011;11909;52.516;13.564;2024-02-28T04:55:01;12.13;;;7.03;;
23472;SDS011;11909;52.516;13.564;2024-02-28T04:57:31;9.35;;;5.53;;
23472;SDS011;11909;52.516;13.564;2024-02-28T05:00:00;8.63;;;5.85;;
23472;SDS011;11909;52.516;13.564;2024-02-28T05:02:28;8.57;;;5.60;;
23472;SDS011;11909;52.516;13.564;2024-02-28T05:04:56;8.48;;;4.93;;
23472;SDS011;11909;52.516;13.564;2024-02-28T05:07:25;7.10;;;5.05;;
23472;SDS011;11909;52.516;13.564;2024-02-28T05:09:53;6.03;;;4.18;;
23472;SDS011;11909;52.516;13.564;2024-02-28T05:12:21;7.30;;;4.32;;
23472;SDS011;11909;52.516;13.564;2024-02-28T05:14:50;5.43;;;4.20;;
23472;SDS011;11909;52.516;13.564;2024-02-28T05:17:20;6.20;;;3.80;;
23472;SDS011;11909;52.516;13.564;2024-02-28T05:19:48;6.25;;;4.13;;
23472;SDS011;11909;52.516;13.564;2024-02-28T05:22:16;7.80;;;4.43;;
23472;SDS011;11909;52.516;13.564;2024-02-28T05:24:45;7.60;;;4.28;;
23472;SDS011;11909;52.516;13.564;2024-02-28T05:27:13;5.28;;;3.90;;
23472;SDS011;11909;52.516;13.564;2024-02-28T05:29:41;8.18;;;4.13;;
23472;SDS011;11909;52.516;13.564;2024-02-28T05:32:10;8.93;;;4.53;;
23472;SDS011;11909;52.516;13.564;2024-02-28T05:34:39;7.77;;;4.57;;
23472;SDS011;11909;52.516;13.564;2024-02-28T05:37:07;6.05;;;4.32;;
23472;SDS011;11909;52.516;13.564;2024-02-28T05:39:35;11.43;;;5.47;;
23472;SDS011;11909;52.516;13.564;2024-02-28T05:42:03;8.75;;;5.07;;
23472;SDS011;11909;52.516;13.564;2024-02-28T05:44:31;7.50;;;5.18;;
23472;SDS011;11909;52.516;13.564;2024-02-28T05:47:01;7.93;;;5.45;;
23472;SDS011;11909;52.516;13.564;2024-02-28T05:49:30;7.65;;;5.15;;
23472;SDS011;11909;52.516;13.564;2024-02-28T05:51:59;10.07;;;5.57;;
23472;SDS011;11909;52.516;13.564;2024-02-28T05:54:26;10.32;;;5.90;;
23472;SDS011;11909;52.516;13.564;2024-02-28T05:56:56;10.13;;;5.75;;
23472;SDS011;11909;52.516;13.564;2024-02-28T05:59:24;9.88;;;5.28;;
23472;SDS011;11909;52.516;13.564;2024-02-28T06:01:52;8.10;;;5.38;;
23472;SDS011;11909;52.516;13.564;2024-02-28T06:04:21;7.93;;;5.15;;
23472;SDS011;11909;52.516;13.564;2024-02-28T06:06:50;9.65;;;5.50;;
23472;SDS011;11909;52.516;13.564;2024-02-28T06:09:18;9.03;;;5.33;;
23472;SDS011;11909;52.516;13.564;2024-02-28T06:11:46;8.50;;;5.57;;
23472;SDS011;11909;52.516;13.564;2024-02-28T06:14:14;10.10;;;5.40;;
23472;SDS011;11909;52.516;13.564;2024-02-28T06:16:42;11.95;;;5.47;;
23472;SDS011;11909;52.516;13.564;2024-02-28T06:19:10;9.55;;;5.88;;
23472;SDS011;11909;52.516;13.564;2024-02-28T06:21:37;10.77;;;5.68;;
23472;SDS011;11909;52.516;13.564;2024-02-28T06:24:07;10.30;;;5.50;;
23472;SDS011;11909;52.516;13.564;2024-02-28T06:26:35;8.73;;;5.22;;
23472;SDS011;11909;52.516;13.564;2024-02-28T06:29:03;9.27;;;5.63;;
23472;SDS011;11909;52.516;13.564;2024-02-28T06:31:32;9.57;;;5.13;;
23472;SDS011;11909;52.516;13.564;2024-02-28T06:34:00;8.43;;;5.03;;
23472;SDS011;11909;52.516;13.564;2024-02-28T06:36:28;9.23;;;5.45;;
23472;SDS011;11909;52.516;13.564;2024-02-28T06:38:57;9.00;;;5.07;;
23472;SDS011;11909;52.516;13.564;2024-02-28T06:41:27;7.65;;;4.88;;
23472;SDS011;11909;52.516;13.564;2024-02-28T06:43:55;9.55;;;4.97;;
23472;SDS011;11909;52.516;13.564;2024-02-28T06:46:23;8.30;;;5.20;;
23472;SDS011;11909;52.516;13.564;2024-02-28T06:48:51;9.68;;;6.05;;
23472;SDS011;11909;52.516;13.564;2024-02-28T06:51:19;7.95;;;5.20;;
23472;SDS011;11909;52.516;13.564;2024-02-28T06:53:47;9.15;;;6.13;;
23472;SDS011;11909;52.516;13.564;2024-02-28T06:56:15;8.65;;;6.55;;
23472;SDS011;11909;52.516;13.564;2024-02-28T06:58:44;9.38;;;5.88;;
23472;SDS011;11909;52.516;13.564;2024-02-28T07:01:12;8.73;;;5.82;;
23472;SDS011;11909;52.516;13.564;2024-02-28T07:03:40;9.68;;;5.53;;
23472;SDS011;11909;52.516;13.564;2024-02-28T07:06:09;7.32;;;5.13;;
23472;SDS011;11909;52.516;13.564;2024-02-28T07:08:37;9.27;;;5.72;;
23472;SDS011;11909;52.516;13.564;2024-02-28T07:11:05;7.82;;;5.53;;
23472;SDS011;11909;52.516;13.564;2024-02-28T07:13:41;7.97;;;5.72;;
23472;SDS011;11909;52.516;13.564;2024-02-28T07:16:10;10.45;;;6.80;;
23472;SDS011;11909;52.516;13.564;2024-02-28T07:18:38;12.35;;;6.75;;
23472;SDS011;11909;52.516;13.564;2024-02-28T07:21:06;11.45;;;6.97;;
23472;SDS011;11909;52.516;13.564;2024-02-28T07:23:34;12.57;;;7.35;;
23472;SDS011;11909;52.516;13.564;2024-02-28T07:26:02;13.48;;;7.55;;
23472;SDS011;11909;52.516;13.564;2024-02-28T07:28:44;12.98;;;8.00;;
23472;SDS011;11909;52.516;13.564;2024-02-28T07:31:17;14.60;;;8.80;;
23472;SDS011;11909;52.516;13.564;2024-02-28T07:33:45;14.70;;;8.77;;
23472;SDS011;11909;52.516;13.564;2024-02-28T07:36:13;15.20;;;8.82;;
23472;SDS011;11909;52.516;13.564;2024-02-28T07:38:42;14.88;;;8.80;;
23472;SDS011;11909;52.516;13.564;2024-02-28T07:41:10;14.20;;;8.90;;
23472;SDS011;11909;52.516;13.564;2024-02-28T07:43:41;15.05;;;9.20;;
23472;SDS011;11909;52.516;13.564;2024-02-28T07:46:10;17.42;;;10.60;;
23472;SDS011;11909;52.516;13.564;2024-02-28T07:48:39;15.32;;;9.23;;
23472;SDS011;11909;52.516;13.564;2024-02-28T07:51:07;14.60;;;9.27;;
23472;SDS011;11909;52.516;13.564;2024-02-28T07:53:36;15.65;;;9.63;;
23472;SDS011;11909;52.516;13.564;2024-02-28T07:56:03;16.13;;;9.77;;
23472;SDS011;11909;52.516;13.564;2024-02-28T07:58:32;15.50;;;9.73;;
23472;SDS011;11909;52.516;13.564;2024-02-28T08:01:00;18.38;;;9.82;;
23472;SDS011;11909;52.516;13.564;2024-02-28T08:03:28;15.60;;;9.70;;
23472;SDS011;11909;52.516;13.564;2024-02-28T08:05:58;16.70;;;9.82;;
23472;SDS011;11909;52.516;13.564;2024-02-28T08:08:27;15.10;;;9.32;;
23472;SDS011;11909;52.516;13.564;2024-02-28T08:10:55;14.20;;;9.00;;
23472;SDS011;11909;52.516;13.564;2024-02-28T08:13:24;14.70;;;10.07;;
23472;SDS011;11909;52.516;13.564;2024-02-28T08:15:54;13.95;;;9.20;;
23472;SDS011;11909;52.516;13.564;2024-02-28T08:18:23;15.48;;;9.43;;
23472;SDS011;11909;52.516;13.564;2024-02-28T08:20:52;17.33;;;9.55;;
23472;SDS011;11909;52.516;13.564;2024-02-28T08:23:25;15.48;;;9.55;;
23472;SDS011;11909;52.516;13.564;2024-02-28T08:25:53;13.45;;;8.73;;
23472;SDS011;11909;52.516;13.564;2024-02-28T08:28:21;15.82;;;9.48;;
23472;SDS011;11909;52.516;13.564;2024-02-28T08:30:49;14.35;;;8.88;;
23472;SDS011;11909;52.516;13.564;2024-02-28T08:33:17;14.07;;;8.73;;
23472;SDS011;11909;52.516;13.564;2024-02-28T08:35:50;12.05;;;7.93;;
23472;SDS011;11909;52.516;13.564;2024-02-28T08:38:18;14.02;;;8.52;;
23472;SDS011;11909;52.516;13.564;2024-02-28T08:40:47;14.10;;;9.05;;
23472;SDS011;11909;52.516;13.564;2024-02-28T08:43:15;14.93;;;8.85;;
23472;SDS011;11909;52.516;13.564;2024-02-28T08:45:43;11.30;;;7.53;;
23472;SDS011;11909;52.516;13.564;2024-02-28T08:48:11;10.25;;;7.22;;
23472;SDS011;11909;52.516;13.564;2024-02-28T08:50:40;14.20;;;8.32;;
23472;SDS011;11909;52.516;13.564;2024-02-28T08:53:08;12.80;;;9.02;;
23472;SDS011;11909;52.516;13.564;2024-02-28T08:55:36;12.82;;;8.43;;
23472;SDS011;11909;52.516;13.564;2024-02-28T08:58:06;13.18;;;8.30;;
23472;SDS011;11909;52.516;13.564;2024-02-28T09:00:34;10.43;;;7.53;;
23472;SDS011;11909;52.516;13.564;2024-02-28T09:03:03;9.57;;;6.97;;
23472;SDS011;11909;52.516;13.564;2024-02-28T09:05:31;12.63;;;8.20;;
23472;SDS011;11909;52.516;13.564;2024-02-28T09:08:00;12.25;;;7.88;;
23472;SDS011;11909;52.516;13.564;2024-02-28T09:10:28;9.52;;;6.72;;
23472;SDS011;11909;52.516;13.564;2024-02-28T09:13:00;10.57;;;7.25;;
23472;SDS011;11909;52.516;13.564;2024-02-28T09:15:30;14.85;;;8.05;;
23472;SDS011;11909;52.516;13.564;2024-02-28T09:17:58;9.60;;;6.75;;
23472;SDS011;11909;52.516;13.564;2024-02-28T09:20:27;11.70;;;7.90;;
23472;SDS011;11909;52.516;13.564;2024-02-28T09:22:55;13.68;;;8.95;;
23472;SDS011;11909;52.516;13.564;2024-02-28T09:25:23;14.77;;;9.77;;
23472;SDS011;11909;52.516;13.564;2024-02-28T09:27:54;12.70;;;8.80;;
23472;SDS011;11909;52.516;13.564;2024-02-28T09:30:24;12.77;;;9.40;;
23472;SDS011;11909;52.516;13.564;2024-02-28T09:32:59;13.27;;;8.75;;
23472;SDS011;11909;52.516;13.564;2024-02-28T09:35:27;13.05;;;8.77;;
23472;SDS011;11909;52.516;13.564;2024-02-28T09:37:55;14.32;;;9.32;;
23472;SDS011;11909;52.516;13.564;2024-02-28T09:40:25;16.58;;;10.65;;
23472;SDS011;11909;52.516;13.564;2024-02-28T09:42:57;14.32;;;10.80;;
23472;SDS011;11909;52.516;13.564;2024-02-28T09:45:30;16.30;;;11.80;;
23472;SDS011;11909;52.516;13.564;2024-02-28T09:48:00;16.88;;;12.00;;
23472;SDS011;11909;52.516;13.564;2024-02-28T09:50:30;19.25;;;12.07;;
23472;SDS011;11909;52.516;13.564;2024-02-28T09:52:58;16.60;;;10.55;;
23472;SDS011;11909;52.516;13.564;2024-02-28T09:55:35;22.00;;;13.02;;
23472;SDS011;11909;52.516;13.564;2024-02-28T09:58:04;20.23;;;13.70;;
23472;SDS011;11909;52.516;13.564;2024-02-28T10:00:33;26.95;;;15.18;;
23472;SDS011;11909;52.516;13.564;2024-02-28T10:03:04;19.90;;;12.27;;
23472;SDS011;11909;52.516;13.564;2024-02-28T10:05:34;21.70;;;12.30;;
23472;SDS011;11909;52.516;13.564;2024-02-28T10:08:02;20.38;;;11.65;;
23472;SDS011;11909;52.516;13.564;2024-02-28T10:10:32;16.98;;;10.95;;
23472;SDS011;11909;52.516;13.564;2024-02-28T10:13:00;16.92;;;10.52;;
23472;SDS011;11909;52.516;13.564;2024-02-28T10:15:28;19.48;;;11.50;;
23472;SDS011;11909;52.516;13.564;2024-02-28T10:17:56;22.38;;;13.30;;
23472;SDS011;11909;52.516;13.564;2024-02-28T10:20:25;24.20;;;13.88;;
23472;SDS011;11909;52.516;13.564;2024-02-28T10:22:53;22.97;;;13.37;;
23472;SDS011;11909;52.516;13.564;2024-02-28T10:25:21;22.00;;;14.25;;
23472;SDS011;11909;52.516;13.564;2024-02-28T10:27:50;28.45;;;14.68;;
23472;SDS011;11909;52.516;13.564;2024-02-28T10:30:18;23.25;;;13.93;;
23472;SDS011;11909;52.516;13.564;2024-02-28T10:32:49;18.58;;;10.45;;
23472;SDS011;11909;52.516;13.564;2024-02-28T10:35:17;15.10;;;9.52;;
23472;SDS011;11909;52.516;13.564;2024-02-28T10:37:49;15.00;;;9.70;;
23472;SDS011;11909;52.516;13.564;2024-02-28T10:40:17;15.75;;;9.52;;
23472;SDS011;11909;52.516;13.564;2024-02-28T10:42:46;15.27;;;8.05;;
23472;SDS011;11909;52.516;13.564;2024-02-28T10:45:16;16.33;;;9.30;;
23472;SDS011;11909;52.516;13.564;2024-02-28T10:48:05;18.05;;;10.10;;
23472;SDS011;11909;52.516;13.564;2024-02-28T10:50:35;14.70;;;9.60;;
23472;SDS011;11909;52.516;13.564;2024-02-28T10:53:04;17.33;;;10.30;;
23472;SDS011;11909;52.516;13.564;2024-02-28T10:55:41;18.88;;;9.90;;
23472;SDS011;11909;52.516;13.564;2024-02-28T10:58:10;21.00;;;10.57;;
23472;SDS011;11909;52.516;13.564;2024-02-28T11:00:39;18.48;;;10.70;;
23472;SDS011;11909;52.516;13.564;2024-02-28T11:03:11;19.20;;;10.70;;
23472;SDS011;11909;52.516;13.564;2024-02-28T11:05:42;20.27;;;11.27;;
23472;SDS011;11909;52.516;13.564;2024-02-28T11:08:21;19.40;;;11.90;;
23472;SDS011;11909;52.516;13.564;2024-02-28T11:10:54;20.48;;;11.50;;
23472;SDS011;11909;52.516;13.564;2024-02-28T11:13:23;23.17;;;12.77;;
23472;SDS011;11909;52.516;13.564;2024-02-28T11:15:52;22.60;;;11.65;;
23472;SDS011;11909;52.516;13.564;2024-02-28T11:18:22;21.52;;;12.40;;
23472;SDS011;11909;52.516;13.564;2024-02-28T11:20:50;21.88;;;13.32;;
23472;SDS011;11909;52.516;13.564;2024-02-28T11:23:18;18.73;;;12.48;;
23472;SDS011;11909;52.516;13.564;2024-02-28T11:25:47;20.38;;;12.55;;
23472;SDS011;11909;52.516;13.564;2024-02-28T11:30:43;20.75;;;12.75;;
23472;SDS011;11909;52.516;13.564;2024-02-28T11:33:11;21.27;;;12.85;;
23472;SDS011;11909;52.516;13.564;2024-02-28T11:35:39;21.85;;;12.88;;
23472;SDS011;11909;52.516;13.564;2024-02-28T11:38:07;21.88;;;13.05;;
23472;SDS011;11909;52.516;13.564;2024-02-28T11:40:36;21.13;;;13.50;;
23472;SDS011;11909;52.516;13.564;2024-02-28T11:43:05;23.95;;;13.13;;
23472;SDS011;11909;52.516;13.564;2024-02-28T11:45:38;22.20;;;12.57;;
23472;SDS011;11909;52.516;13.564;2024-02-28T11:48:08;24.35;;;13.27;;
23472;SDS011;11909;52.516;13.564;2024-02-28T11:50:37;23.05;;;12.27;;
23472;SDS011;11909;52.516;13.564;2024-02-28T11:53:05;22.17;;;12.88;;
23472;SDS011;11909;52.516;13.564;2024-02-28T11:55:33;20.00;;;13.15;;
23472;SDS011;11909;52.516;13.564;2024-02-28T11:58:02;21.45;;;13.25;;
23472;SDS011;11909;52.516;13.564;2024-02-28T12:00:36;19.30;;;12.15;;
23472;SDS011;11909;52.516;13.564;2024-02-28T12:03:14;26.13;;;13.10;;
23472;SDS011;11909;52.516;13.564;2024-02-28T12:05:42;22.23;;;12.88;;
23472;SDS011;11909;52.516;13.564;2024-02-28T12:08:11;22.30;;;12.57;;
23472;SDS011;11909;52.516;13.564;2024-02-28T12:10:39;22.40;;;13.88;;
23472;SDS011;11909;52.516;13.564;2024-02-28T12:13:06;24.33;;;13.32;;
23472;SDS011;11909;52.516;13.564;2024-02-28T12:15:37;21.60;;;13.35;;
23472;SDS011;11909;52.516;13.564;2024-02-28T12:18:08;24.13;;;13.65;;
23472;SDS011;11909;52.516;13.564;2024-02-28T12:20:37;24.60;;;13.67;;
23472;SDS011;11909;52.516;13.564;2024-02-28T12:23:05;20.23;;;12.43;;
23472;SDS011;11909;52.516;13.564;2024-02-28T12:25:34;21.27;;;12.95;;
23472;SDS011;11909;52.516;13.564;2024-02-28T12:28:03;19.42;;;12.48;;
23472;SDS011;11909;52.516;13.564;2024-02-28T12:30:55;22.60;;;12.38;;
23472;SDS011;11909;52.516;13.564;2024-02-28T12:33:23;24.75;;;12.32;;
23472;SDS011;11909;52.516;13.564;2024-02-28T12:35:51;21.65;;;13.27;;
23472;SDS011;11909;52.516;13.564;2024-02-28T12:38:19;19.88;;;12.05;;
23472;SDS011;11909;52.516;13.564;2024-02-28T12:40:49;19.38;;;11.70;;
23472;SDS011;11909;52.516;13.564;2024-02-28T12:43:17;16.20;;;10.48;;
23472;SDS011;11909;52.516;13.564;2024-02-28T12:45:45;19.90;;;12.20;;
23472;SDS011;11909;52.516;13.564;2024-02-28T12:48:14;14.90;;;9.88;;
23472;SDS011;11909;52.516;13.564;2024-02-28T12:50:42;18.17;;;10.83;;
23472;SDS011;11909;52.516;13.564;2024-02-28T12:53:11;17.50;;;10.40;;
23472;SDS011;11909;52.516;13.564;2024-02-28T12:55:39;18.30;;;11.32;;
23472;SDS011;11909;52.516;13.564;2024-02-28T12:58:07;19.38;;;10.55;;
23472;SDS011;11909;52.516;13.564;2024-02-28T13:00:35;19.50;;;10.23;;
23472;SDS011;11909;52.516;13.564;2024-02-28T13:03:04;15.48;;;9.93;;
23472;SDS011;11909;52.516;13.564;2024-02-28T13:05:33;16.05;;;10.60;;
23472;SDS011;11909;52.516;13.564;2024-02-28T13:08:02;15.88;;;10.80;;
23472;SDS011;11909;52.516;13.564;2024-02-28T13:10:29;15.57;;;9.95;;
23472;SDS011;11909;52.516;13.564;2024-02-28T13:13:02;17.85;;;10.02;;
23472;SDS011;11909;52.516;13.564;2024-02-28T13:15:31;14.07;;;9.02;;
23472;SDS011;11909;52.516;13.564;2024-02-28T13:17:58;15.70;;;9.98;;
23472;SDS011;11909;52.516;13.564;2024-02-28T13:20:28;14.73;;;9.80;;
23472;SDS011;11909;52.516;13.564;2024-02-28T13:22:57;18.48;;;10.93;;
23472;SDS011;11909;52.516;13.564;2024-02-28T13:25:29;15.55;;;9.38;;
23472;SDS011;11909;52.516;13.564;2024-02-28T13:27:57;18.92;;;11.52;;
23472;SDS011;11909;52.516;13.564;2024-02-28T13:30:26;19.50;;;12.25;;
23472;SDS011;11909;52.516;13.564;2024-02-28T13:32:53;17.80;;;12.40;;
23472;SDS011;11909;52.516;13.564;2024-02-28T13:35:21;15.85;;;10.80;;
23472;SDS011;11909;52.516;13.564;2024-02-28T13:37:49;14.82;;;9.98;;
23472;SDS011;11909;52.516;13.564;2024-02-28T13:40:21;17.77;;;11.10;;
23472;SDS011;11909;52.516;13.564;2024-02-28T13:42:48;16.08;;;10.88;;
23472;SDS011;11909;52.516;13.564;2024-02-28T13:45:17;16.48;;;10.68;;
23472;SDS011;11909;52.516;13.564;2024-02-28T13:47:45;16.48;;;10.85;;
23472;SDS011;11909;52.516;13.564;2024-02-28T13:50:13;14.75;;;10.40;;
23472;SDS011;11909;52.516;13.564;2024-02-28T13:52:41;15.57;;;10.70;;
23472;SDS011;11909;52.516;13.564;2024-02-28T13:55:09;17.13;;;10.65;;
23472;SDS011;11909;52.516;13.564;2024-02-28T13:57:38;16.35;;;10.85;;
23472;SDS011;11909;52.516;13.564;2024-02-28T14:00:07;17.10;;;11.10;;
23472;SDS011;11909;52.516;13.564;2024-02-28T14:02:37;16.42;;;11.20;;
23472;SDS011;11909;52.516;13.564;2024-02-28T14:05:06;17.48;;;11.63;;
23472;SDS011;11909;52.516;13.564;2024-02-28T14:07:34;17.40;;;11.32;;
23472;SDS011;11909;52.516;13.564;2024-02-28T14:10:04;19.52;;;12.65;;
23472;SDS011;11909;52.516;13.564;2024-02-28T14:12:32;18.23;;;12.50;;
23472;SDS011;11909;52.516;13.564;2024-02-28T14:15:02;21.15;;;12.32;;
23472;SDS011;11909;52.516;13.564;2024-02-28T14:19:58;18.25;;;12.80;;
23472;SDS011;11909;52.516;13.564;2024-02-28T14:22:27;17.70;;;12.27;;
23472;SDS011;11909;52.516;13.564;2024-02-28T14:24:54;19.20;;;12.38;;
23472;SDS011;11909;52.516;13.564;2024-02-28T14:27:23;24.83;;;13.95;;
23472;SDS011;11909;52.516;13.564;2024-02-28T14:29:52;20.85;;;14.18;;
23472;SDS011;11909;52.516;13.564;2024-02-28T14:32:20;23.05;;;14.70;;
23472;SDS011;11909;52.516;13.564;2024-02-28T14:34:48;23.48;;;14.32;;